Time;durP1;ratioP1;P1;durP2;ratioP2;P2;SDS_P1;SDS_P2;PMS_P1;PMS_P2;Temp;Humidity;BMP_temperature;BMP_pressure;BME280_temperature;BME280_humidity;BME280_pressure;Samples;Min_cycle;Max_cycle;Signal;HPM_P1;HPM_P2
2022/01/02 00:00:11;;;;;;;4.88;2.42;;;;;;;;;;7393529;19;20016;-76
2022/01/02 00:02:37;;;;;;;3.40;2.20;;;;;;;;;;7391989;19;20104;-77
2022/01/02 00:05:03;;;;;;;4.25;2.42;;;;;;;;;;7393473;19;20117;-77
2022/01/02 00:07:30;;;;;;;5.90;2.50;;;;;;;;;;7392469;19;20459;-77
2022/01/02 00:10:01;;;;;;;4.53;2.35;;;;;;;;;;7392361;19;20544;-77
2022/01/02 00:12:31;;;;;;;12.15;4.88;;;;;;;;;;7393975;19;19995;-77
2022/01/02 00:14:58;;;;;;;7.28;3.72;;;;;;;;;;7392390;19;20020;-77
2022/01/02 00:17:23;;;;;;;5.13;3.13;;;;;;;;;;7391983;19;20002;-76
2022/01/02 00:19:54;;;;;;;6.80;2.95;;;;;;;;;;7392607;19;20029;-76
2022/01/02 00:22:30;;;;;;;7.32;2.92;;;;;;;;;;7394436;19;20799;-76
2022/01/02 00:24:56;;;;;;;4.43;2.67;;;;;;;;;;7392576;19;20066;-77
2022/01/02 00:27:22;;;;;;;3.78;2.47;;;;;;;;;;7391708;19;20019;-76
2022/01/02 00:29:48;;;;;;;4.70;3.00;;;;;;;;;;7392241;19;20009;-76
2022/01/02 00:32:13;;;;;;;4.03;2.70;;;;;;;;;;7392492;19;19997;-76
2022/01/02 00:34:40;;;;;;;4.00;2.85;;;;;;;;;;7396926;19;19999;-76
2022/01/02 00:37:07;;;;;;;3.90;2.42;;;;;;;;;;7392011;19;20114;-77
2022/01/02 00:39:33;;;;;;;6.55;2.90;;;;;;;;;;7390302;19;20002;-77
2022/01/02 00:42:12;;;;;;;3.38;2.38;;;;;;;;;;7391902;19;20002;-77
2022/01/02 00:44:46;;;;;;;4.15;2.70;;;;;;;;;;7392208;19;20352;-76
2022/01/02 00:47:20;;;;;;;4.45;2.28;;;;;;;;;;7391108;19;20323;-77
2022/01/02 00:49:58;;;;;;;3.60;2.10;;;;;;;;;;7391876;19;19998;-76
2022/01/02 00:52:26;;;;;;;4.82;2.60;;;;;;;;;;7392230;19;19999;-76
2022/01/02 00:54:54;;;;;;;4.03;2.53;;;;;;;;;;7392099;19;19998;-77
2022/01/02 00:57:29;;;;;;;4.07;2.15;;;;;;;;;;7390703;19;20465;-77
2022/01/02 01:00:14;;;;;;;3.65;2.35;;;;;;;;;;7391789;19;20009;-78
2022/01/02 01:02:54;;;;;;;2.95;2.00;;;;;;;;;;7389636;19;19994;-76
2022/01/02 01:05:28;;;;;;;3.30;2.10;;;;;;;;;;7391507;19;20002;-76
2022/01/02 01:07:56;;;;;;;4.07;2.38;;;;;;;;;;7390389;19;20007;-76
2022/01/02 01:10:22;;;;;;;4.50;2.78;;;;;;;;;;7390739;19;20027;-77
2022/01/02 01:12:52;;;;;;;3.72;2.58;;;;;;;;;;7392160;19;20018;-76
2022/01/02 01:15:20;;;;;;;3.45;2.47;;;;;;;;;;7395095;19;19999;-76
2022/01/02 01:17:45;;;;;;;4.30;2.50;;;;;;;;;;7389738;19;20007;-76
2022/01/02 01:20:13;;;;;;;3.35;2.22;;;;;;;;;;7390780;19;19999;-76
2022/01/02 01:22:39;;;;;;;3.97;2.65;;;;;;;;;;7393261;19;20043;-76
2022/01/02 01:25:07;;;;;;;3.85;2.38;;;;;;;;;;7393708;19;19998;-76
2022/01/02 01:27:33;;;;;;;3.92;2.47;;;;;;;;;;7389781;19;20767;-77
2022/01/02 01:29:58;;;;;;;4.53;2.63;;;;;;;;;;7390373;19;19995;-76
2022/01/02 01:32:24;;;;;;;5.20;2.75;;;;;;;;;;7390566;19;20002;-76
2022/01/02 01:34:49;;;;;;;4.40;3.00;;;;;;;;;;7390458;19;20016;-76
2022/01/02 01:37:14;;;;;;;4.00;2.53;;;;;;;;;;7390453;19;20425;-76
2022/01/02 01:39:40;;;;;;;3.97;2.33;;;;;;;;;;7389237;19;20002;-77
2022/01/02 01:42:09;;;;;;;4.03;2.80;;;;;;;;;;7389700;19;20345;-76
2022/01/02 01:47:12;;;;;;;3.25;2.40;;;;;;;;;;7389949;19;20006;-76
2022/01/02 01:49:37;;;;;;;2.90;2.03;;;;;;;;;;7389712;19;19998;-76
2022/01/02 01:52:02;;;;;;;2.80;1.63;;;;;;;;;;7390402;19;20033;-77
2022/01/02 01:54:28;;;;;;;3.42;2.25;;;;;;;;;;7389802;19;20002;-77
2022/01/02 01:56:54;;;;;;;2.90;1.90;;;;;;;;;;7389641;19;20003;-76
2022/01/02 01:59:20;;;;;;;2.15;1.67;;;;;;;;;;7389097;19;20008;-76
2022/01/02 02:01:46;;;;;;;3.70;2.08;;;;;;;;;;7389190;19;19999;-76
2022/01/02 02:04:12;;;;;;;1.83;1.70;;;;;;;;;;7389795;19;20006;-76
2022/01/02 02:06:37;;;;;;;3.72;1.92;;;;;;;;;;7389350;19;20008;-76
2022/01/02 02:09:04;;;;;;;2.70;1.70;;;;;;;;;;7388631;19;20013;-76
2022/01/02 02:11:30;;;;;;;2.85;1.85;;;;;;;;;;7392685;19;20451;-76
2022/01/02 02:13:56;;;;;;;3.33;2.20;;;;;;;;;;7392806;19;20027;-76
2022/01/02 02:16:22;;;;;;;2.80;1.70;;;;;;;;;;7389379;19;20323;-76
2022/01/02 02:18:48;;;;;;;2.97;2.08;;;;;;;;;;7388919;19;20005;-77
2022/01/02 02:21:14;;;;;;;2.75;1.83;;;;;;;;;;7389361;19;20475;-76
2022/01/02 02:23:39;;;;;;;2.47;1.70;;;;;;;;;;7388768;19;19998;-76
2022/01/02 02:26:04;;;;;;;2.45;1.90;;;;;;;;;;7389595;19;20003;-76
2022/01/02 02:28:30;;;;;;;2.50;1.60;;;;;;;;;;7386583;19;20023;-76
2022/01/02 02:30:56;;;;;;;1.30;1.20;;;;;;;;;;7388929;19;20337;-76
2022/01/02 02:33:21;;;;;;;2.13;1.42;;;;;;;;;;7389314;19;20006;-76
2022/01/02 02:35:48;;;;;;;1.60;1.33;;;;;;;;;;7389585;19;19999;-77
2022/01/02 02:38:16;;;;;;;3.83;1.55;;;;;;;;;;7385821;19;20118;-76
2022/01/02 02:40:42;;;;;;;2.17;1.50;;;;;;;;;;7388934;19;19998;-77
2022/01/02 02:51:33;;;;;;;4.70;1.80;;;;;;;;;;7388794;19;20007;-76
2022/01/02 02:53:58;;;;;;;3.90;1.57;;;;;;;;;;7388287;19;20347;-76
2022/01/02 02:56:26;;;;;;;2.42;1.75;;;;;;;;;;7388479;19;19998;-76
2022/01/02 02:58:57;;;;;;;2.20;1.52;;;;;;;;;;7387494;19;19999;-76
2022/01/02 03:01:25;;;;;;;2.10;1.60;;;;;;;;;;7392017;19;20069;-76
2022/01/02 03:03:51;;;;;;;3.28;1.98;;;;;;;;;;7388220;19;20003;-77
2022/01/02 03:06:17;;;;;;;4.05;1.85;;;;;;;;;;7388592;19;20019;-77
2022/01/02 03:08:44;;;;;;;2.53;1.98;;;;;;;;;;7386860;19;20433;-76
2022/01/02 03:11:14;;;;;;;2.78;1.75;;;;;;;;;;7388543;19;19995;-76
2022/01/02 03:13:41;;;;;;;4.93;1.85;;;;;;;;;;7392551;19;20010;-76
2022/01/02 03:16:06;;;;;;;5.30;2.45;;;;;;;;;;7388211;19;20002;-76
2022/01/02 03:18:32;;;;;;;2.95;1.92;;;;;;;;;;7387015;19;20007;-76
2022/01/02 03:20:57;;;;;;;2.45;1.80;;;;;;;;;;7387989;19;19998;-77
2022/01/02 03:23:22;;;;;;;2.70;2.05;;;;;;;;;;7389418;19;20074;-77
2022/01/02 03:25:47;;;;;;;2.47;1.65;;;;;;;;;;7387978;19;19999;-77
2022/01/02 03:28:13;;;;;;;3.92;1.95;;;;;;;;;;7391473;19;20002;-77
2022/01/02 03:30:38;;;;;;;2.60;1.90;;;;;;;;;;7394909;19;20002;-77
2022/01/02 03:33:03;;;;;;;2.95;1.75;;;;;;;;;;7395181;19;20003;-77
2022/01/02 03:35:29;;;;;;;1.75;1.38;;;;;;;;;;7395032;19;19995;-77
2022/01/02 03:37:55;;;;;;;1.70;1.40;;;;;;;;;;7392945;19;20320;-77
2022/01/02 03:40:21;;;;;;;1.30;1.10;;;;;;;;;;7393512;19;20396;-76
2022/01/02 03:42:46;;;;;;;1.42;1.25;;;;;;;;;;7392672;19;20006;-76
2022/01/02 03:45:11;;;;;;;1.63;1.33;;;;;;;;;;7393230;19;20012;-77
2022/01/02 03:47:37;;;;;;;1.80;1.38;;;;;;;;;;7392803;19;19998;-77
2022/01/02 03:50:04;;;;;;;2.45;1.63;;;;;;;;;;7393353;19;20018;-76
2022/01/02 03:52:30;;;;;;;1.98;1.60;;;;;;;;;;7398594;19;20037;-77
2022/01/02 03:54:56;;;;;;;2.78;1.80;;;;;;;;;;7394346;19;20002;-77
2022/01/02 03:57:21;;;;;;;3.17;1.88;;;;;;;;;;7392708;19;20454;-76
2022/01/02 03:59:47;;;;;;;3.20;1.95;;;;;;;;;;7393492;19;20009;-76
2022/01/02 04:02:12;;;;;;;3.10;2.17;;;;;;;;;;7391105;19;20002;-76
2022/01/02 04:04:37;;;;;;;2.80;1.75;;;;;;;;;;7393512;19;20008;-76
2022/01/02 04:07:03;;;;;;;1.70;1.50;;;;;;;;;;7392713;19;20343;-77
2022/01/02 04:09:29;;;;;;;1.48;1.35;;;;;;;;;;7392715;19;20020;-76
2022/01/02 04:11:54;;;;;;;1.75;1.50;;;;;;;;;;7393959;19;20002;-76
2022/01/02 04:14:19;;;;;;;2.40;1.65;;;;;;;;;;7393615;19;20005;-76
2022/01/02 04:16:45;;;;;;;4.20;1.58;;;;;;;;;;7392825;19;20003;-76
2022/01/02 04:19:10;;;;;;;1.58;1.25;;;;;;;;;;7392310;19;19995;-77
2022/01/02 04:21:35;;;;;;;2.00;1.42;;;;;;;;;;7393959;19;19998;-77
2022/01/02 04:24:01;;;;;;;1.70;1.45;;;;;;;;;;7392993;19;20356;-76
2022/01/02 04:26:26;;;;;;;2.17;1.23;;;;;;;;;;7393205;19;20031;-76
2022/01/02 04:28:52;;;;;;;2.17;1.52;;;;;;;;;;7392206;19;20480;-77
2022/01/02 04:31:17;;;;;;;1.48;1.17;;;;;;;;;;7393144;19;20157;-76
2022/01/02 04:33:42;;;;;;;1.73;1.42;;;;;;;;;;7393182;19;20019;-77
2022/01/02 04:36:08;;;;;;;3.08;1.63;;;;;;;;;;7392756;19;20013;-76
2022/01/02 04:38:35;;;;;;;2.03;1.50;;;;;;;;;;7389002;19;20001;-76
2022/01/02 04:41:01;;;;;;;2.58;1.55;;;;;;;;;;7394638;19;20113;-76
2022/01/02 04:43:26;;;;;;;3.08;2.13;;;;;;;;;;7392356;19;20010;-76
2022/01/02 04:45:51;;;;;;;2.65;1.90;;;;;;;;;;7392548;19;20027;-76
2022/01/02 04:48:17;;;;;;;5.25;2.00;;;;;;;;;;7389805;19;19998;-76
2022/01/02 04:50:42;;;;;;;3.45;1.58;;;;;;;;;;7392271;19;20023;-76
2022/01/02 04:53:07;;;;;;;2.47;1.52;;;;;;;;;;7391444;19;20006;-76
2022/01/02 04:55:33;;;;;;;1.83;1.25;;;;;;;;;;7392258;19;20010;-76
2022/01/02 04:57:58;;;;;;;1.73;1.35;;;;;;;;;;7390215;19;20089;-77
2022/01/02 05:00:23;;;;;;;2.70;1.67;;;;;;;;;;7391911;19;19998;-76
2022/01/02 05:02:52;;;;;;;2.95;1.60;;;;;;;;;;7390193;19;20075;-76
2022/01/02 05:05:18;;;;;;;2.22;1.48;;;;;;;;;;7393088;19;20462;-76
2022/01/02 05:07:43;;;;;;;1.67;1.48;;;;;;;;;;7390147;19;20001;-76
2022/01/02 05:10:08;;;;;;;2.75;1.52;;;;;;;;;;7388599;19;20009;-76
2022/01/02 05:12:34;;;;;;;2.85;1.50;;;;;;;;;;7391656;19;20006;-77
2022/01/02 05:15:00;;;;;;;2.05;1.38;;;;;;;;;;7391571;19;19998;-76
2022/01/02 05:17:26;;;;;;;3.15;1.67;;;;;;;;;;7390266;19;20003;-77
2022/01/02 05:19:51;;;;;;;1.55;1.35;;;;;;;;;;7390590;19;20003;-76
2022/01/02 05:22:16;;;;;;;2.95;1.85;;;;;;;;;;7392589;19;20065;-76
2022/01/02 05:24:42;;;;;;;1.92;1.45;;;;;;;;;;7388717;19;20002;-76
2022/01/02 05:27:07;;;;;;;1.83;1.42;;;;;;;;;;7388482;19;20002;-77
2022/01/02 05:29:32;;;;;;;2.45;1.70;;;;;;;;;;7390353;19;20002;-76
2022/01/02 05:31:57;;;;;;;3.35;2.05;;;;;;;;;;7394232;19;20001;-76
2022/01/02 05:34:23;;;;;;;1.92;1.45;;;;;;;;;;7394707;19;19998;-76
2022/01/02 05:36:48;;;;;;;3.15;1.77;;;;;;;;;;7390069;19;19998;-76
2022/01/02 05:39:18;;;;;;;2.63;1.75;;;;;;;;;;7389152;19;20003;-76
2022/01/02 05:41:44;;;;;;;1.80;1.42;;;;;;;;;;7390108;19;19998;-76
2022/01/02 05:44:09;;;;;;;2.28;1.50;;;;;;;;;;7391054;19;19994;-76
2022/01/02 05:46:34;;;;;;;2.15;1.73;;;;;;;;;;7390448;19;20003;-75
2022/01/02 05:49:00;;;;;;;2.70;1.63;;;;;;;;;;7388607;19;20005;-76
2022/01/02 05:51:25;;;;;;;2.35;1.80;;;;;;;;;;7391043;19;19999;-76
2022/01/02 05:53:50;;;;;;;3.17;1.92;;;;;;;;;;7389366;19;20458;-76
2022/01/02 05:56:15;;;;;;;2.83;1.38;;;;;;;;;;7390037;19;20003;-76
2022/01/02 05:58:41;;;;;;;2.92;1.77;;;;;;;;;;7389666;19;20070;-77
2022/01/02 06:01:06;;;;;;;1.98;1.40;;;;;;;;;;7389897;19;19999;-77
2022/01/02 06:03:31;;;;;;;2.65;1.58;;;;;;;;;;7389755;19;20330;-76
2022/01/02 06:05:57;;;;;;;2.78;1.75;;;;;;;;;;7389858;19;19991;-76
2022/01/02 06:08:22;;;;;;;2.40;2.00;;;;;;;;;;7386759;19;20006;-77
2022/01/02 06:10:48;;;;;;;2.33;1.70;;;;;;;;;;7389946;19;20009;-77
2022/01/02 06:13:13;;;;;;;1.63;1.23;;;;;;;;;;7389588;19;20371;-76
2022/01/02 06:15:38;;;;;;;3.65;1.65;;;;;;;;;;7389774;19;20031;-77
2022/01/02 06:18:04;;;;;;;2.85;1.80;;;;;;;;;;7387975;19;20002;-77
2022/01/02 06:20:29;;;;;;;2.53;1.65;;;;;;;;;;7389816;19;20027;-77
2022/01/02 06:22:54;;;;;;;2.53;1.73;;;;;;;;;;7391209;19;20554;-76
2022/01/02 06:25:21;;;;;;;1.92;1.25;;;;;;;;;;7388798;19;19998;-77
2022/01/02 06:27:48;;;;;;;6.75;1.80;;;;;;;;;;7388051;19;20133;-76
2022/01/02 06:30:14;;;;;;;2.88;2.20;;;;;;;;;;7388977;19;20007;-76
2022/01/02 06:32:39;;;;;;;3.25;1.38;;;;;;;;;;7389543;19;20058;-76
2022/01/02 06:35:05;;;;;;;3.08;1.63;;;;;;;;;;7389065;19;20436;-77
2022/01/02 06:37:31;;;;;;;2.63;1.70;;;;;;;;;;7387785;19;20102;-76
2022/01/02 06:39:56;;;;;;;2.20;1.48;;;;;;;;;;7387506;19;20005;-76
2022/01/02 06:42:22;;;;;;;2.88;1.73;;;;;;;;;;7388206;19;20025;-77
2022/01/02 06:44:48;;;;;;;2.92;1.77;;;;;;;;;;7388949;19;20005;-76
2022/01/02 06:47:14;;;;;;;2.50;1.77;;;;;;;;;;7387469;19;19995;-76
2022/01/02 06:49:40;;;;;;;2.45;1.63;;;;;;;;;;7388064;19;20122;-76
2022/01/02 06:52:06;;;;;;;10.55;3.65;;;;;;;;;;7388698;19;20006;-77
2022/01/02 06:54:32;;;;;;;5.43;2.78;;;;;;;;;;7387989;19;20006;-77
2022/01/02 06:56:57;;;;;;;3.25;2.15;;;;;;;;;;7389947;19;20007;-76
2022/01/02 06:59:23;;;;;;;3.10;2.22;;;;;;;;;;7388129;19;19999;-76
2022/01/02 07:01:48;;;;;;;3.65;2.17;;;;;;;;;;7389668;19;20075;-76
2022/01/02 07:04:13;;;;;;;2.30;1.52;;;;;;;;;;7395569;19;20006;-76
2022/01/02 07:06:39;;;;;;;3.45;2.00;;;;;;;;;;7395840;19;20074;-76
2022/01/02 07:09:04;;;;;;;4.03;1.98;;;;;;;;;;7394288;19;20002;-76
2022/01/02 07:11:30;;;;;;;2.65;1.88;;;;;;;;;;7398932;19;20027;-77
2022/01/02 07:13:55;;;;;;;3.13;2.08;;;;;;;;;;7398267;19;20023;-77
2022/01/02 07:16:20;;;;;;;5.03;2.30;;;;;;;;;;7394958;19;20006;-77
2022/01/02 07:18:46;;;;;;;2.53;1.75;;;;;;;;;;7394505;19;20032;-77
2022/01/02 07:21:11;;;;;;;3.25;1.88;;;;;;;;;;7395523;19;19999;-77
2022/01/02 07:23:36;;;;;;;1.88;1.23;;;;;;;;;;7394487;19;20022;-77
2022/01/02 07:26:02;;;;;;;3.83;1.75;;;;;;;;;;7395287;19;20396;-77
2022/01/02 07:28:29;;;;;;;2.47;1.80;;;;;;;;;;7391952;19;20062;-76
2022/01/02 07:30:54;;;;;;;2.00;1.55;;;;;;;;;;7395315;19;20002;-77
2022/01/02 07:33:20;;;;;;;2.55;1.75;;;;;;;;;;7395045;19;19998;-76
2022/01/02 07:35:45;;;;;;;3.55;1.73;;;;;;;;;;7394829;19;20009;-77
2022/01/02 07:38:10;;;;;;;3.50;2.10;;;;;;;;;;7389801;19;20065;-77
2022/01/02 07:40:36;;;;;;;2.53;1.75;;;;;;;;;;7395209;19;20343;-76
2022/01/02 07:43:01;;;;;;;2.72;1.98;;;;;;;;;;7392644;19;20032;-77
2022/01/02 07:45:26;;;;;;;14.15;6.43;;;;;;;;;;7394732;19;20006;-77
2022/01/02 07:47:51;;;;;;;6.72;4.13;;;;;;;;;;7393131;19;20019;-77
2022/01/02 07:50:18;;;;;;;12.73;6.38;;;;;;;;;;7393732;19;20426;-77
2022/01/02 07:52:43;;;;;;;8.98;4.63;;;;;;;;;;7395476;19;19999;-76
2022/01/02 07:55:09;;;;;;;12.10;4.78;;;;;;;;;;7395536;19;19998;-76
2022/01/02 07:57:35;;;;;;;5.50;3.38;;;;;;;;;;7392595;19;19994;-76
2022/01/02 08:00:00;;;;;;;5.78;3.03;;;;;;;;;;7395177;19;20114;-77
2022/01/02 08:02:25;;;;;;;4.72;3.15;;;;;;;;;;7396175;19;20027;-76
2022/01/02 08:04:51;;;;;;;5.72;3.33;;;;;;;;;;7394116;19;20106;-76
2022/01/02 08:07:16;;;;;;;5.03;3.00;;;;;;;;;;7392294;19;20450;-77
2022/01/02 08:09:41;;;;;;;10.93;5.97;;;;;;;;;;7392594;19;20023;-77
2022/01/02 08:12:07;;;;;;;14.70;6.97;;;;;;;;;;7393337;19;20078;-76
2022/01/02 08:14:32;;;;;;;5.13;3.03;;;;;;;;;;7393513;19;19991;-77
2022/01/02 08:16:57;;;;;;;6.18;3.28;;;;;;;;;;7393250;19;20005;-77
2022/01/02 08:19:23;;;;;;;6.75;3.38;;;;;;;;;;7392840;19;20466;-77
2022/01/02 08:21:48;;;;;;;6.00;3.58;;;;;;;;;;7394288;19;20019;-76
2022/01/02 08:24:13;;;;;;;5.20;3.00;;;;;;;;;;7392652;19;20378;-76
2022/01/02 08:26:39;;;;;;;4.70;2.72;;;;;;;;;;7392839;19;20016;-76
2022/01/02 08:29:04;;;;;;;4.85;2.70;;;;;;;;;;7392422;19;19995;-77
2022/01/02 08:31:30;;;;;;;3.92;2.50;;;;;;;;;;7392951;19;20019;-76
2022/01/02 08:33:56;;;;;;;3.67;2.33;;;;;;;;;;7392708;19;20002;-77
2022/01/02 08:36:22;;;;;;;3.72;2.40;;;;;;;;;;7391066;19;20007;-77
2022/01/02 08:38:47;;;;;;;7.00;2.70;;;;;;;;;;7391678;19;19995;-77
2022/01/02 08:41:14;;;;;;;4.80;2.72;;;;;;;;;;7392924;19;20323;-76
2022/01/02 08:43:40;;;;;;;6.65;3.00;;;;;;;;;;7392722;19;19995;-77
2022/01/02 08:46:05;;;;;;;5.43;3.33;;;;;;;;;;7392765;19;19995;-76
2022/01/02 08:48:31;;;;;;;4.30;2.60;;;;;;;;;;7389582;19;20082;-77
2022/01/02 08:50:56;;;;;;;4.63;2.67;;;;;;;;;;7395200;19;19994;-77
2022/01/02 08:53:22;;;;;;;5.00;3.33;;;;;;;;;;7395228;19;20554;-77
2022/01/02 08:55:47;;;;;;;14.38;8.55;;;;;;;;;;7392154;19;20312;-77
2022/01/02 08:58:13;;;;;;;16.45;10.45;;;;;;;;;;7388111;19;20019;-77
2022/01/02 09:00:38;;;;;;;12.82;6.70;;;;;;;;;;7391923;19;19999;-77
2022/01/02 09:03:03;;;;;;;9.60;5.82;;;;;;;;;;7390226;19;19994;-77
2022/01/02 09:05:29;;;;;;;8.18;5.38;;;;;;;;;;7392826;19;19994;-77
2022/01/02 09:07:55;;;;;;;5.43;3.85;;;;;;;;;;7390011;19;20035;-76
2022/01/02 09:10:21;;;;;;;10.13;4.43;;;;;;;;;;7390562;19;19995;-76
2022/01/02 09:12:47;;;;;;;6.30;3.92;;;;;;;;;;7391962;19;20172;-76
2022/01/02 09:15:12;;;;;;;6.50;3.72;;;;;;;;;;7391304;19;20489;-77
2022/01/02 09:17:38;;;;;;;7.20;4.40;;;;;;;;;;7390193;19;20008;-77
2022/01/02 09:20:06;;;;;;;9.02;4.15;;;;;;;;;;7390642;19;19999;-76
2022/01/02 09:22:31;;;;;;;6.63;4.38;;;;;;;;;;7393061;19;20492;-76
2022/01/02 09:24:56;;;;;;;7.43;4.32;;;;;;;;;;7389084;19;19999;-76
2022/01/02 09:27:22;;;;;;;8.00;4.45;;;;;;;;;;7390487;19;20374;-77
2022/01/02 09:29:47;;;;;;;4.40;3.22;;;;;;;;;;7390347;19;19990;-77
2022/01/02 09:32:13;;;;;;;5.47;3.85;;;;;;;;;;7391069;19;20003;-77
2022/01/02 09:34:38;;;;;;;5.45;3.80;;;;;;;;;;7390816;19;19994;-76
2022/01/02 09:37:04;;;;;;;6.90;3.97;;;;;;;;;;7390169;19;20388;-77
2022/01/02 09:39:30;;;;;;;6.65;4.05;;;;;;;;;;7392915;19;19998;-76
2022/01/02 09:41:55;;;;;;;4.97;3.50;;;;;;;;;;7393532;19;20008;-77
2022/01/02 09:44:20;;;;;;;8.02;4.63;;;;;;;;;;7390357;19;20439;-76
2022/01/02 09:46:51;;;;;;;18.17;5.55;;;;;;;;;;7390185;19;19998;-77
2022/01/02 09:49:16;;;;;;;6.93;3.88;;;;;;;;;;7390320;19;20541;-76
2022/01/02 09:51:42;;;;;;;9.23;4.07;;;;;;;;;;7390804;19;20469;-77
2022/01/02 09:54:09;;;;;;;7.30;4.15;;;;;;;;;;7389682;19;20001;-77
2022/01/02 09:56:35;;;;;;;7.07;3.10;;;;;;;;;;7389962;19;20106;-76
2022/01/02 09:59:02;;;;;;;4.40;2.78;;;;;;;;;;7388987;19;20014;-76
2022/01/02 10:01:29;;;;;;;5.85;3.50;;;;;;;;;;7390036;19;20046;-76
2022/01/02 10:03:57;;;;;;;4.93;3.58;;;;;;;;;;7389676;19;20002;-76
2022/01/02 10:06:36;;;;;;;4.45;2.95;;;;;;;;;;7390048;19;20505;-77
2022/01/02 10:09:02;;;;;;;4.10;2.38;;;;;;;;;;7388753;19;20391;-76
2022/01/02 10:11:27;;;;;;;4.25;2.55;;;;;;;;;;7389717;19;20459;-76
2022/01/02 10:14:04;;;;;;;10.68;2.60;;;;;;;;;;7389655;19;20477;-77
2022/01/02 10:16:34;;;;;;;3.38;2.15;;;;;;;;;;7389684;19;20021;-77
2022/01/02 10:19:22;;;;;;;3.47;2.00;;;;;;;;;;7388793;19;19999;-77
2022/01/02 10:22:02;;;;;;;5.60;2.55;;;;;;;;;;7390061;19;19991;-77
2022/01/02 10:24:30;;;;;;;3.95;2.25;;;;;;;;;;7389320;19;19995;-77
2022/01/02 10:27:14;;;;;;;4.53;3.28;;;;;;;;;;7388750;19;20007;-77
2022/01/02 10:29:58;;;;;;;7.25;4.43;;;;;;;;;;7393170;19;20444;-76
2022/01/02 10:32:26;;;;;;;6.07;2.67;;;;;;;;;;7389826;19;20438;-77
2022/01/02 10:34:53;;;;;;;3.65;2.38;;;;;;;;;;7389221;19;20006;-77
2022/01/02 10:37:26;;;;;;;4.35;2.28;;;;;;;;;;7394996;19;19995;-77
2022/01/02 10:39:51;;;;;;;4.07;2.08;;;;;;;;;;7395467;19;20005;-77
2022/01/02 10:42:18;;;;;;;3.50;2.38;;;;;;;;;;7395401;19;19995;-77
2022/01/02 10:44:43;;;;;;;3.92;2.28;;;;;;;;;;7396307;19;20024;-78
2022/01/02 10:47:21;;;;;;;4.68;2.95;;;;;;;;;;7395057;19;20364;-76
2022/01/02 10:50:07;;;;;;;4.47;2.22;;;;;;;;;;7395801;19;19994;-77
2022/01/02 10:52:41;;;;;;;3.35;2.38;;;;;;;;;;7396329;19;19995;-77
2022/01/02 10:55:27;;;;;;;4.43;2.20;;;;;;;;;;7395315;19;20001;-77
2022/01/02 10:57:55;;;;;;;4.03;2.03;;;;;;;;;;7394000;19;19999;-76
2022/01/02 11:00:25;;;;;;;2.50;2.15;;;;;;;;;;7396013;19;20005;-76
2022/01/02 11:02:51;;;;;;;5.75;2.60;;;;;;;;;;7393903;19;20477;-77
2022/01/02 11:05:19;;;;;;;3.60;2.30;;;;;;;;;;7395932;19;19993;-77
2022/01/02 11:07:51;;;;;;;5.55;1.50;;;;;;;;;;7393617;19;19999;-76
2022/01/02 11:10:19;;;;;;;3.83;1.48;;;;;;;;;;7396202;19;19987;-77
2022/01/02 11:12:46;;;;;;;2.60;1.25;;;;;;;;;;7395998;19;19998;-77
2022/01/02 11:15:15;;;;;;;1.67;1.25;;;;;;;;;;7395626;19;19998;-78
2022/01/02 11:17:41;;;;;;;2.28;1.05;;;;;;;;;;7395015;19;20344;-76
2022/01/02 11:20:09;;;;;;;2.88;1.95;;;;;;;;;;7397795;19;19990;-77
2022/01/02 11:22:42;;;;;;;5.10;3.20;;;;;;;;;;7396477;19;20024;-77
2022/01/02 11:25:17;;;;;;;2.97;1.70;;;;;;;;;;7394724;19;20003;-76
2022/01/02 11:27:52;;;;;;;2.40;1.70;;;;;;;;;;7393263;19;19999;-77
2022/01/02 11:30:30;;;;;;;2.13;1.50;;;;;;;;;;7394465;19;20014;-77
2022/01/02 11:33:10;;;;;;;4.05;1.75;;;;;;;;;;7394934;19;20007;-77
2022/01/02 11:35:39;;;;;;;2.15;1.30;;;;;;;;;;7395532;19;19991;-77
2022/01/02 11:38:06;;;;;;;1.88;1.38;;;;;;;;;;7392133;19;20118;-78
2022/01/02 11:40:45;;;;;;;1.90;1.40;;;;;;;;;;7395592;19;20469;-76
2022/01/02 11:43:36;;;;;;;2.47;1.65;;;;;;;;;;7392102;19;20207;-78
2022/01/02 11:46:30;;;;;;;3.28;2.00;;;;;;;;;;7394446;19;20003;-76
2022/01/02 11:49:05;;;;;;;3.10;1.85;;;;;;;;;;7390952;19;20010;-77
2022/01/02 11:51:48;;;;;;;2.45;1.60;;;;;;;;;;7394352;19;19998;-77
2022/01/02 11:54:40;;;;;;;2.13;1.52;;;;;;;;;;7393671;19;19998;-77
2022/01/02 11:57:12;;;;;;;1.30;1.20;;;;;;;;;;7391791;19;19995;-77
2022/01/02 11:59:40;;;;;;;1.88;1.30;;;;;;;;;;7393299;19;20003;-78
2022/01/02 12:02:17;;;;;;;2.47;1.80;;;;;;;;;;7392986;19;20015;-77
2022/01/02 12:05:02;;;;;;;3.13;1.60;;;;;;;;;;7394056;19;20033;-78
2022/01/02 12:07:34;;;;;;;2.08;1.55;;;;;;;;;;7395073;19;20342;-77
2022/01/02 12:10:21;;;;;;;3.15;1.70;;;;;;;;;;7395980;19;20033;-77
2022/01/02 12:13:16;;;;;;;3.20;1.48;;;;;;;;;;7393828;19;19999;-77
2022/01/02 12:15:41;;;;;;;1.45;1.02;;;;;;;;;;7393965;19;20114;-76
2022/01/02 12:18:19;;;;;;;1.03;0.90;;;;;;;;;;7391237;19;20131;-77
2022/01/02 12:20:54;;;;;;;2.72;1.42;;;;;;;;;;7393570;19;20224;-77
2022/01/02 12:23:31;;;;;;;1.55;1.13;;;;;;;;;;7395083;19;20012;-77
2022/01/02 12:25:58;;;;;;;1.67;1.27;;;;;;;;;;7393636;19;19995;-77
2022/01/02 12:28:23;;;;;;;2.53;1.20;;;;;;;;;;7390370;19;19998;-75
2022/01/02 12:30:52;;;;;;;1.10;0.95;;;;;;;;;;7393032;19;20009;-77
2022/01/02 12:33:25;;;;;;;0.98;0.47;;;;;;;;;;7392686;19;20002;-76
2022/01/02 12:35:50;;;;;;;0.88;0.70;;;;;;;;;;7392955;19;20462;-77
2022/01/02 12:38:16;;;;;;;2.13;0.68;;;;;;;;;;7389616;19;20075;-76
2022/01/02 12:40:41;;;;;;;1.20;0.63;;;;;;;;;;7391818;19;19995;-77
2022/01/02 12:43:08;;;;;;;1.52;0.60;;;;;;;;;;7391240;19;19991;-75
2022/01/02 12:45:34;;;;;;;0.40;0.40;;;;;;;;;;7392830;19;19995;-75
2022/01/02 12:47:59;;;;;;;0.28;0.25;;;;;;;;;;7390666;19;20023;-75
2022/01/02 12:50:26;;;;;;;0.52;0.40;;;;;;;;;;7391893;19;19997;-75
2022/01/02 12:52:53;;;;;;;0.40;0.40;;;;;;;;;;7392244;19;20074;-75
2022/01/02 12:55:19;;;;;;;0.40;0.38;;;;;;;;;;7391559;19;19999;-76
2022/01/02 12:57:44;;;;;;;0.40;0.25;;;;;;;;;;7393241;19;20050;-75
2022/01/02 13:00:10;;;;;;;0.40;0.20;;;;;;;;;;7391872;19;20305;-76
2022/01/02 13:02:35;;;;;;;0.45;0.25;;;;;;;;;;7395486;19;20006;-75
2022/01/02 13:05:04;;;;;;;0.40;0.40;;;;;;;;;;7391869;19;19990;-75
2022/01/02 13:07:35;;;;;;;0.88;0.43;;;;;;;;;;7390904;19;20029;-75
2022/01/02 13:10:03;;;;;;;0.55;0.30;;;;;;;;;;7390599;19;20390;-75
2022/01/02 13:12:31;;;;;;;0.50;0.30;;;;;;;;;;7391824;19;19998;-76
2022/01/02 13:14:58;;;;;;;0.70;0.40;;;;;;;;;;7391251;19;20015;-75
2022/01/02 13:17:26;;;;;;;0.90;0.30;;;;;;;;;;7390666;19;20003;-75
2022/01/02 13:20:09;;;;;;;0.47;0.40;;;;;;;;;;7422643;19;20360;-71
2022/01/02 13:22:41;;;;;;;0.50;0.40;;;;;;;;;;7423755;19;20023;-70
2022/01/02 13:25:13;;;;;;;1.58;0.32;;;;;;;;;;7423372;19;19998;-71
2022/01/02 13:28:02;;;;;;;0.45;0.40;;;;;;;;;;7423081;19;20002;-71
2022/01/02 13:30:33;;;;;;;0.82;0.57;;;;;;;;;;7422313;19;20107;-70
2022/01/02 13:33:02;;;;;;;1.02;0.80;;;;;;;;;;7424072;19;20005;-71
2022/01/02 13:35:29;;;;;;;0.60;0.60;;;;;;;;;;7423043;19;20002;-70
2022/01/02 13:38:06;;;;;;;1.60;0.82;;;;;;;;;;7422069;19;20062;-71
2022/01/02 13:40:34;;;;;;;1.48;0.80;;;;;;;;;;7423117;19;20021;-70
2022/01/02 13:43:21;;;;;;;0.88;0.63;;;;;;;;;;7422663;19;20003;-71
2022/01/02 13:45:47;;;;;;;2.28;0.40;;;;;;;;;;7423140;19;20006;-70
2022/01/02 13:48:15;;;;;;;0.63;0.50;;;;;;;;;;7423755;19;20010;-70
2022/01/02 13:50:45;;;;;;;1.75;0.60;;;;;;;;;;7425818;19;20007;-71
2022/01/02 13:53:26;;;;;;;0.57;0.57;;;;;;;;;;7422589;19;20006;-71
2022/01/02 13:56:15;;;;;;;1.00;0.90;;;;;;;;;;7423119;19;20022;-71
2022/01/02 13:58:45;;;;;;;2.85;0.70;;;;;;;;;;7418981;19;20500;-71
2022/01/02 14:01:22;;;;;;;1.15;0.70;;;;;;;;;;7422864;19;20002;-71
2022/01/02 14:03:58;;;;;;;7.70;0.77;;;;;;;;;;7422305;19;20011;-71
2022/01/02 14:06:39;;;;;;;1.27;0.73;;;;;;;;;;7422389;19;19998;-71
2022/01/02 14:09:13;;;;;;;0.63;0.60;;;;;;;;;;7418611;19;20041;-70
2022/01/02 14:11:41;;;;;;;1.13;0.70;;;;;;;;;;7422349;19;20002;-71
2022/01/02 14:14:23;;;;;;;1.23;0.65;;;;;;;;;;7421699;19;20006;-70
2022/01/02 14:19:40;;;;;;;1.25;0.95;;;;;;;;;;7418073;19;19986;-71
2022/01/02 14:22:06;;;;;;;1.17;0.68;;;;;;;;;;7423494;19;20512;-71
2022/01/02 14:24:32;;;;;;;1.10;0.77;;;;;;;;;;7422005;19;20026;-71
2022/01/02 14:26:58;;;;;;;1.88;1.17;;;;;;;;;;7420951;19;19995;-72
2022/01/02 14:29:24;;;;;;;1.85;0.77;;;;;;;;;;7412783;19;20349;-71
2022/01/02 14:31:50;;;;;;;2.63;0.68;;;;;;;;;;7393077;19;20023;-71
2022/01/02 14:34:15;;;;;;;1.02;0.82;;;;;;;;;;7393173;19;20006;-72
2022/01/02 14:36:41;;;;;;;2.05;1.30;;;;;;;;;;7394977;19;19999;-72
2022/01/02 14:39:09;;;;;;;1.00;0.90;;;;;;;;;;7393129;19;20038;-72
2022/01/02 14:41:37;;;;;;;0.90;0.70;;;;;;;;;;7392783;19;20012;-72
2022/01/02 14:44:04;;;;;;;1.50;1.17;;;;;;;;;;7392575;19;20307;-72
2022/01/02 14:46:29;;;;;;;1.08;0.80;;;;;;;;;;7392020;19;20015;-71
2022/01/02 14:48:54;;;;;;;1.17;0.70;;;;;;;;;;7389871;19;20003;-72
2022/01/02 14:51:20;;;;;;;0.77;0.60;;;;;;;;;;7392468;19;19995;-73
2022/01/02 14:53:45;;;;;;;0.65;0.65;;;;;;;;;;7392262;19;20014;-71
2022/01/02 14:56:10;;;;;;;1.10;0.68;;;;;;;;;;7392323;19;19998;-72
2022/01/02 14:58:36;;;;;;;0.93;0.80;;;;;;;;;;7393530;19;20007;-71
2022/01/02 15:01:03;;;;;;;1.13;0.68;;;;;;;;;;7391835;19;20002;-72